Time;durP1;ratioP1;P1;durP2;ratioP2;P2;SDS_P1;SDS_P2;PMS_P1;PMS_P2;Temp;Humidity;BMP_temperature;BMP_pressure;BME280_temperature;BME280_humidity;BME280_pressure;Samples;Min_cycle;Max_cycle;Signal;HPM_P1;HPM_P2
2022/08/10 00:01:49;;;;;;;2.72;1.23;;;;;;;25.42;32.81;100125.97;4452404;32;33617;-62
2022/08/10 00:04:21;;;;;;;5.87;1.37;;;;;;;25.62;32.57;100126.06;4448671;32;33470;-62
2022/08/10 00:06:51;;;;;;;3.00;1.30;;;;;;;25.68;32.29;100122.50;4449209;32;34287;-62
2022/08/10 00:09:20;;;;;;;5.00;1.67;;;;;;;25.31;32.97;100122.75;4433895;32;32770;-61
2022/08/10 00:11:47;;;;;;;3.60;1.65;;;;;;;25.19;33.13;100115.31;4450070;32;32985;-62
2022/08/10 00:14:15;;;;;;;3.42;1.73;;;;;;;25.26;33.16;100114.28;4448670;32;32353;-61
2022/08/10 00:16:43;;;;;;;2.30;1.42;;;;;;;25.43;32.94;100112.09;4448443;32;32230;-61
2022/08/10 00:19:10;;;;;;;5.47;1.70;;;;;;;25.23;33.72;100102.88;4451581;32;33824;-62
2022/08/10 00:21:38;;;;;;;2.72;1.48;;;;;;;25.35;33.25;100108.66;4449297;32;33377;-61
2022/08/10 00:24:06;;;;;;;4.57;1.23;;;;;;;25.60;32.64;100106.25;4448853;32;33714;-61
2022/08/10 00:26:34;;;;;;;3.37;1.58;;;;;;;25.28;33.00;100114.94;4449094;32;34291;-61
2022/08/10 00:29:22;;;;;;;1.90;1.17;;;;;;;25.23;33.08;100106.50;4449314;32;33973;-62
2022/08/10 00:31:49;;;;;;;4.62;1.80;;;;;;;24.54;34.61;100111.81;4448512;32;31432;-61
2022/08/10 00:34:27;;;;;;;5.93;1.62;;;;;;;24.99;33.58;100115.13;4449432;32;34826;-62
2022/08/10 00:36:55;;;;;;;4.65;1.87;;;;;;;24.35;34.78;100111.41;4449728;32;34161;-61
2022/08/10 00:39:22;;;;;;;3.05;1.62;;;;;;;24.35;35.03;100113.28;4441394;32;34670;-62
2022/08/10 00:41:52;;;;;;;4.20;1.80;;;;;;;24.14;35.50;100106.78;4451089;32;33357;-61
2022/08/10 00:44:45;;;;;;;2.87;1.45;;;;;;;24.83;34.04;100100.69;4449816;32;33648;-61
2022/08/10 00:47:13;;;;;;;4.68;1.52;;;;;;;25.04;33.79;100102.53;4448868;32;32476;-61
2022/08/10 00:50:01;;;;;;;3.20;1.00;;;;;;;24.42;35.05;100107.91;4448745;32;34892;-61
2022/08/10 00:52:30;;;;;;;3.30;1.12;;;;;;;24.41;35.01;100109.81;4441866;32;34797;-62
2022/08/10 00:54:57;;;;;;;3.47;1.55;;;;;;;24.47;34.92;100109.03;4434734;32;33650;-61
2022/08/10 00:57:25;;;;;;;3.92;1.77;;;;;;;24.52;34.85;100103.78;4452266;32;32608;-61
2022/08/10 00:59:53;;;;;;;3.83;2.17;;;;;;;24.31;35.29;100112.00;4453736;32;34482;-62
2022/08/10 01:02:28;;;;;;;2.53;1.55;;;;;;;24.30;35.34;100102.94;4452747;32;33244;-61
2022/08/10 01:04:58;;;;;;;4.12;1.52;;;;;;;24.38;35.34;100113.75;4466589;32;34741;-61
2022/08/10 01:07:44;;;;;;;5.80;1.98;;;;;;;24.27;35.54;100110.66;4453423;32;32880;-61
2022/08/10 01:10:17;;;;;;;2.10;1.17;;;;;;;24.36;35.56;100106.78;4464238;32;32714;-61
2022/08/10 01:13:20;;;;;;;2.25;1.33;;;;;;;24.59;35.14;100109.31;4464790;32;33661;-61
2022/08/10 01:15:58;;;;;;;2.90;1.40;;;;;;;23.98;36.21;100104.28;4446692;32;32479;-61
2022/08/10 01:19:00;;;;;;;4.57;1.83;;;;;;;23.97;36.35;100104.47;4453890;32;34039;-60
2022/08/10 01:22:02;;;;;;;3.60;1.67;;;;;;;23.94;36.39;100108.44;4397891;32;35129;-61
2022/08/10 01:24:54;;;;;;;3.42;1.70;;;;;;;24.23;35.96;100107.47;4460363;32;33183;-60
2022/08/10 01:27:36;;;;;;;3.55;1.65;;;;;;;24.13;36.16;100099.59;4461377;32;33747;-61
2022/08/10 01:30:06;;;;;;;2.72;1.42;;;;;;;23.28;37.79;100093.91;4454680;32;34088;-60
2022/08/10 01:32:42;;;;;;;2.30;1.48;;;;;;;23.39;37.81;100107.91;4460531;32;35155;-63
2022/08/10 01:35:27;;;;;;;6.50;1.62;;;;;;;22.89;38.63;100101.28;4458696;32;33492;-63
2022/08/10 01:38:04;;;;;;;4.32;1.70;;;;;;;23.13;38.48;100108.37;4449832;32;32857;-62
2022/08/10 01:40:34;;;;;;;4.05;1.75;;;;;;;23.39;37.92;100112.53;4451740;32;32571;-62
2022/08/10 01:43:05;;;;;;;3.75;1.77;;;;;;;23.42;37.93;100106.69;4436271;32;33862;-62
2022/08/10 01:45:39;;;;;;;2.75;1.58;;;;;;;23.57;37.64;100104.81;4448543;32;33432;-63
2022/08/10 01:48:43;;;;;;;4.10;1.50;;;;;;;23.09;38.60;100114.44;4438239;32;32466;-62
2022/08/10 01:51:18;;;;;;;2.30;1.33;;;;;;;23.34;38.28;100114.97;4448293;32;34087;-61
2022/08/10 01:53:52;;;;;;;2.10;1.37;;;;;;;23.61;37.77;100113.47;4439817;32;33946;-62
2022/08/10 01:56:22;;;;;;;3.62;1.62;;;;;;;23.20;38.54;100120.25;4441295;32;33284;-61
2022/08/10 01:58:54;;;;;;;4.57;2.15;;;;;;;22.88;39.37;100121.41;4439119;32;33240;-61
2022/08/10 02:01:25;;;;;;;5.00;1.67;;;;;;;23.35;38.39;100127.63;4459346;32;33910;-61
2022/08/10 02:03:56;;;;;;;3.70;1.62;;;;;;;23.53;38.07;100124.47;4441985;32;34134;-61
2022/08/10 02:06:36;;;;;;;2.92;1.42;;;;;;;23.60;37.88;100122.72;4454122;32;34626;-61
2022/08/10 02:09:06;;;;;;;3.83;1.83;;;;;;;23.70;37.81;100120.56;4467345;32;32533;-60
2022/08/10 02:11:35;;;;;;;2.85;1.62;;;;;;;23.87;37.43;100118.44;4460817;32;33966;-61
2022/08/10 02:14:30;;;;;;;5.37;1.85;;;;;;;24.09;37.11;100119.34;4456942;32;33993;-61
2022/08/10 02:17:08;;;;;;;4.43;2.30;;;;;;;23.92;37.36;100119.56;4453604;32;33620;-61
2022/08/10 02:20:01;;;;;;;5.12;1.90;;;;;;;24.20;36.97;100120.69;4452826;32;33920;-61
2022/08/10 02:22:29;;;;;;;3.47;1.92;;;;;;;23.94;37.72;100119.38;4452215;32;35501;-61
2022/08/10 02:25:06;;;;;;;3.72;1.85;;;;;;;24.15;37.14;100122.13;4453271;32;33680;-61
2022/08/10 02:27:34;;;;;;;5.78;1.73;;;;;;;24.46;36.49;100114.69;4441384;32;33212;-61
2022/08/10 02:30:04;;;;;;;5.25;2.35;;;;;;;23.81;37.78;100121.94;4450614;32;32451;-62
2022/08/10 02:32:33;;;;;;;3.17;1.50;;;;;;;24.16;37.19;100120.25;4445244;32;35357;-61
2022/08/10 02:35:07;;;;;;;4.97;2.03;;;;;;;24.46;36.63;100117.41;4459482;32;34053;-60
2022/08/10 02:37:46;;;;;;;3.72;1.83;;;;;;;24.44;36.60;100122.25;4453109;32;34190;-62
2022/08/10 02:40:14;;;;;;;3.72;2.00;;;;;;;24.22;37.24;100119.47;4456817;32;33959;-63
2022/08/10 02:43:14;;;;;;;5.60;1.90;;;;;;;24.25;37.02;100124.56;4452494;32;32909;-63
2022/08/10 02:46:07;;;;;;;4.78;1.90;;;;;;;24.72;36.28;100130.50;4450791;32;34281;-62
2022/08/10 02:48:43;;;;;;;4.43;1.87;;;;;;;24.50;36.67;100130.53;4457228;32;34751;-63
2022/08/10 02:51:16;;;;;;;4.80;1.80;;;;;;;24.83;36.28;100121.75;4454668;32;33535;-64
2022/08/10 02:53:50;;;;;;;3.60;1.80;;;;;;;25.01;35.52;100124.00;4459411;32;32930;-63
2022/08/10 02:56:45;;;;;;;4.62;2.05;;;;;;;25.08;35.72;100133.97;4446741;32;34053;-64
2022/08/10 02:59:15;;;;;;;6.30;1.60;;;;;;;25.26;35.33;100138.09;4442779;32;34796;-63
2022/08/10 03:01:46;;;;;;;3.80;2.00;;;;;;;25.26;35.21;100138.09;4442111;32;33504;-63
2022/08/10 03:04:20;;;;;;;3.42;1.55;;;;;;;25.18;35.29;100141.84;4446251;32;33402;-65
2022/08/10 03:07:11;;;;;;;5.45;1.85;;;;;;;25.27;35.24;100134.34;4446743;32;34045;-63
2022/08/10 03:09:40;;;;;;;4.68;1.98;;;;;;;25.28;35.26;100142.34;4441999;32;33321;-63
2022/08/10 03:12:09;;;;;;;4.97;2.00;;;;;;;25.52;34.84;100143.75;4441727;32;33934;-63
2022/08/10 03:14:58;;;;;;;4.07;1.90;;;;;;;25.42;35.06;100143.25;4439758;32;35011;-63
2022/08/10 03:17:27;;;;;;;3.42;1.95;;;;;;;24.84;36.19;100157.12;4435974;32;32964;-62
2022/08/10 03:19:56;;;;;;;4.80;2.28;;;;;;;24.82;36.29;100156.50;4447138;32;33668;-62
2022/08/10 03:22:45;;;;;;;4.07;1.70;;;;;;;24.69;36.37;100156.38;4452614;32;34823;-63
2022/08/10 03:25:13;;;;;;;5.10;1.95;;;;;;;25.02;35.97;100164.03;4449137;32;34128;-62
2022/08/10 03:27:41;;;;;;;5.53;2.00;;;;;;;24.68;36.32;100171.09;4447604;32;35056;-60
2022/08/10 03:30:10;;;;;;;4.10;1.90;;;;;;;25.08;35.58;100160.50;4444792;32;33311;-60
2022/08/10 03:32:58;;;;;;;5.07;2.20;;;;;;;25.02;35.82;100164.03;4428526;32;33150;-61
2022/08/10 03:35:26;;;;;;;4.60;1.60;;;;;;;25.04;35.78;100165.53;4439093;32;34901;-60
2022/08/10 03:37:54;;;;;;;5.15;1.80;;;;;;;24.77;36.32;100169.91;4438509;32;32064;-62
2022/08/10 03:40:28;;;;;;;6.85;2.10;;;;;;;24.78;36.27;100168.91;4439594;32;33586;-62
2022/08/10 03:43:17;;;;;;;4.43;2.08;;;;;;;24.86;36.04;100165.16;4450389;32;33883;-61
2022/08/10 03:45:48;;;;;;;2.70;1.62;;;;;;;24.44;36.89;100164.12;4442783;32;34731;-62
2022/08/10 03:48:23;;;;;;;3.47;1.85;;;;;;;24.04;37.92;100169.09;4448770;32;34199;-61
2022/08/10 03:51:12;;;;;;;2.85;1.62;;;;;;;24.29;37.27;100168.78;4444200;32;34413;-61
2022/08/10 03:53:40;;;;;;;3.60;1.87;;;;;;;24.05;37.70;100173.56;4460453;32;34089;-60
2022/08/10 03:56:28;;;;;;;4.20;1.80;;;;;;;24.23;37.29;100169.53;4446571;32;34070;-61
2022/08/10 03:58:59;;;;;;;3.05;1.50;;;;;;;24.16;37.57;100180.41;4441313;32;35078;-61
2022/08/10 04:01:28;;;;;;;3.00;1.50;;;;;;;24.61;36.81;100176.50;4458831;32;34679;-60
2022/08/10 04:04:16;;;;;;;4.18;1.98;;;;;;;24.61;36.94;100175.66;4455129;32;33844;-61
2022/08/10 04:06:52;;;;;;;5.82;1.70;;;;;;;24.85;36.59;100183.47;4450938;32;34620;-61
2022/08/10 04:09:26;;;;;;;4.78;1.83;;;;;;;24.92;36.16;100180.81;4463757;32;33898;-61
2022/08/10 04:12:14;;;;;;;4.43;1.70;;;;;;;24.93;36.48;100187.97;4457267;32;33570;-61
2022/08/10 04:14:42;;;;;;;5.18;2.15;;;;;;;24.68;36.59;100189.41;4454401;32;32440;-61
2022/08/10 04:17:23;;;;;;;4.43;1.90;;;;;;;24.60;36.76;100193.13;4454244;32;32725;-61
2022/08/10 04:20:17;;;;;;;6.03;1.90;;;;;;;24.56;36.66;100179.00;4462961;32;33594;-60
2022/08/10 04:22:47;;;;;;;5.37;1.80;;;;;;;25.10;35.60;100177.56;4453551;32;33431;-61
2022/08/10 04:25:16;;;;;;;3.33;1.70;;;;;;;24.60;36.38;100193.13;4434550;32;33220;-61
2022/08/10 04:27:44;;;;;;;5.32;2.00;;;;;;;24.85;36.03;100188.97;4454075;32;33619;-63
2022/08/10 04:30:12;;;;;;;4.32;1.58;;;;;;;24.90;36.08;100180.13;4444213;32;33809;-62
2022/08/10 04:32:40;;;;;;;3.42;1.58;;;;;;;25.23;35.31;100185.06;4450411;32;33658;-61
2022/08/10 04:35:09;;;;;;;4.78;1.73;;;;;;;24.93;36.00;100181.62;4446398;32;33757;-61
2022/08/10 04:37:38;;;;;;;3.22;1.73;;;;;;;24.87;35.94;100181.38;4438715;32;32205;-61
2022/08/10 04:40:16;;;;;;;4.25;1.95;;;;;;;24.60;36.03;100177.56;4444748;32;33118;-61
2022/08/10 04:43:02;;;;;;;4.28;1.70;;;;;;;24.35;36.40;100184.41;4453481;32;33771;-61
2022/08/10 04:45:41;;;;;;;3.78;1.77;;;;;;;24.51;36.31;100183.34;4450563;32;33803;-61
2022/08/10 04:48:21;;;;;;;3.75;1.62;;;;;;;24.44;36.81;100186.03;4457544;32;34039;-61
2022/08/10 04:51:11;;;;;;;3.85;2.00;;;;;;;24.73;36.06;100189.69;4459944;32;34279;-61
2022/08/10 04:53:47;;;;;;;4.03;1.73;;;;;;;24.44;36.17;100193.37;4457224;32;32286;-61
2022/08/10 04:56:35;;;;;;;3.90;1.95;;;;;;;24.44;36.07;100191.50;4439220;32;34143;-60
2022/08/10 04:59:04;;;;;;;4.28;1.55;;;;;;;24.75;35.66;100184.84;4452104;32;34024;-61
2022/08/10 05:01:32;;;;;;;4.07;1.70;;;;;;;24.96;35.26;100190.31;4454910;32;34058;-59
2022/08/10 05:04:20;;;;;;;3.70;2.03;;;;;;;25.26;34.58;100181.94;4455285;32;32223;-60
2022/08/10 05:07:06;;;;;;;;;;;;;;;26.10;32.91;100184.56;4455615;32;34013;-61
2022/08/10 05:09:33;;;;;;;7.18;1.80;;;;;;;27.10;31.31;100180.09;4464846;32;34957;-61
2022/08/10 05:12:21;;;;;;;8.43;1.70;;;;;;;27.28;31.15;100186.88;4456805;32;34204;-60
2022/08/10 05:14:50;;;;;;;4.07;2.03;;;;;;;26.76;31.98;100178.38;4449764;32;33255;-61
2022/08/10 05:17:19;;;;;;;4.20;1.73;;;;;;;26.32;32.48;100184.38;4456394;32;33432;-60
2022/08/10 05:19:46;;;;;;;4.18;1.85;;;;;;;25.71;33.26;100187.91;4450668;32;34980;-61
2022/08/10 05:22:34;;;;;;;4.78;1.80;;;;;;;25.44;34.19;100185.00;4462833;32;33586;-62
2022/08/10 05:25:03;;;;;;;4.75;1.70;;;;;;;25.07;34.76;100177.94;4458558;32;33463;-63
2022/08/10 05:27:31;;;;;;;4.05;1.70;;;;;;;24.84;35.22;100191.88;4448647;32;33742;-60
2022/08/10 05:29:58;;;;;;;4.57;1.90;;;;;;;24.62;35.54;100180.09;4462497;32;36110;-60
2022/08/10 05:32:31;;;;;;;3.47;1.50;;;;;;;24.18;36.26;100189.28;4463081;32;33901;-60
2022/08/10 05:35:19;;;;;;;4.10;1.70;;;;;;;24.47;35.68;100187.53;4452199;32;33535;-60
2022/08/10 05:37:49;;;;;;;3.85;1.70;;;;;;;24.30;36.23;100178.66;4450898;32;34734;-61
2022/08/10 05:40:38;;;;;;;5.12;1.90;;;;;;;24.67;35.25;100183.09;4464647;32;35008;-60
2022/08/10 05:43:06;;;;;;;4.62;1.95;;;;;;;24.79;35.06;100192.47;4463174;32;34109;-60
2022/08/10 05:45:34;;;;;;;3.62;1.62;;;;;;;24.53;35.62;100194.97;4438651;32;34366;-61
2022/08/10 05:48:22;;;;;;;4.68;1.60;;;;;;;24.59;35.75;100196.87;4452674;32;35236;-60
2022/08/10 05:51:09;;;;;;;5.15;1.65;;;;;;;24.80;35.27;100191.44;4450151;32;36323;-60
2022/08/10 05:53:38;;;;;;;4.95;1.62;;;;;;;24.83;35.11;100188.28;4457711;32;34196;-60
2022/08/10 05:56:25;;;;;;;3.05;1.70;;;;;;;24.83;34.71;100191.03;4443016;32;35068;-60
2022/08/10 05:59:14;;;;;;;3.85;1.87;;;;;;;24.50;35.18;100196.19;4454426;32;34786;-61
2022/08/10 06:02:03;;;;;;;4.25;1.17;;;;;;;24.60;34.88;100191.25;4454053;32;33912;-61
2022/08/10 06:04:52;;;;;;;4.72;1.73;;;;;;;24.68;34.71;100186.66;4450230;32;32705;-61
2022/08/10 06:07:20;;;;;;;3.05;1.35;;;;;;;24.27;34.79;100192.72;4439793;32;32366;-62
2022/08/10 06:09:49;;;;;;;4.30;1.52;;;;;;;24.13;35.57;100189.84;4440619;32;32851;-60
2022/08/10 06:12:28;;;;;;;5.72;2.22;;;;;;;24.61;34.79;100192.94;4445822;32;33016;-61
2022/08/10 06:15:16;;;;;;;5.22;1.92;;;;;;;24.54;34.42;100193.91;4456591;32;35221;-60
2022/08/10 06:17:48;;;;;;;4.82;1.90;;;;;;;24.53;34.84;100193.06;4445100;32;33601;-60
2022/08/10 06:20:30;;;;;;;4.20;1.85;;;;;;;24.59;34.86;100192.28;4436077;32;32667;-60
2022/08/10 06:23:03;;;;;;;6.25;1.90;;;;;;;25.14;33.84;100189.03;4464353;32;33892;-60
2022/08/10 06:25:32;;;;;;;3.85;1.87;;;;;;;24.96;33.99;100195.78;4461850;32;34390;-61
2022/08/10 06:28:21;;;;;;;2.85;1.33;;;;;;;25.22;33.29;100184.22;4451694;32;31665;-61
2022/08/10 06:30:49;;;;;;;5.28;1.48;;;;;;;25.11;33.96;100192.97;4441486;32;35323;-61
2022/08/10 06:33:18;;;;;;;5.00;1.80;;;;;;;25.33;32.79;100186.44;4436186;32;35560;-61
2022/08/10 06:35:51;;;;;;;6.62;1.80;;;;;;;25.14;33.65;100197.25;4438252;32;33924;-61
2022/08/10 06:38:20;;;;;;;4.35;1.77;;;;;;;25.28;33.33;100188.91;4439515;32;33815;-61
2022/08/10 06:40:48;;;;;;;4.93;1.67;;;;;;;25.11;33.90;100203.91;4459962;32;35044;-61
2022/08/10 06:43:17;;;;;;;3.97;1.90;;;;;;;24.86;33.88;100192.53;4459718;32;32850;-62
2022/08/10 06:45:48;;;;;;;8.15;1.75;;;;;;;25.27;33.79;100186.37;4443706;32;34005;-61
2022/08/10 06:48:40;;;;;;;4.57;1.70;;;;;;;25.54;33.34;100190.97;4451801;32;33604;-61
2022/08/10 06:51:13;;;;;;;3.12;1.50;;;;;;;25.24;33.84;100193.09;4449045;32;33512;-61
2022/08/10 06:53:46;;;;;;;3.60;1.60;;;;;;;25.26;33.20;100182.75;4450088;32;35022;-61
2022/08/10 06:56:30;;;;;;;4.72;1.60;;;;;;;25.42;33.56;100189.00;4447526;32;34071;-61
2022/08/10 06:59:31;;;;;;;3.78;1.50;;;;;;;25.16;33.70;100185.00;4439460;32;33136;-61
2022/08/10 07:02:04;;;;;;;4.47;1.70;;;;;;;25.30;33.69;100181.34;4436823;32;34937;-61
2022/08/10 07:04:45;;;;;;;4.65;1.58;;;;;;;25.70;32.82;100187.06;4444662;32;35050;-61
2022/08/10 07:07:18;;;;;;;2.30;1.60;;;;;;;25.65;32.89;100194.19;4455694;32;34972;-61
2022/08/10 07:09:46;;;;;;;4.37;1.67;;;;;;;25.63;32.68;100188.09;4453103;32;35306;-61
2022/08/10 07:12:14;;;;;;;2.53;1.50;;;;;;;25.34;32.92;100192.75;4457622;32;33849;-61
2022/08/10 07:14:43;;;;;;;3.83;1.67;;;;;;;25.23;33.10;100188.69;4447925;32;33750;-62
2022/08/10 07:17:13;;;;;;;3.30;1.48;;;;;;;25.53;33.25;100189.28;4448125;32;34867;-61
2022/08/10 07:19:45;;;;;;;8.40;1.60;;;;;;;25.28;33.67;100190.81;4444674;32;34498;-61
2022/08/10 07:22:21;;;;;;;5.20;1.48;;;;;;;25.17;34.44;100181.25;4460491;32;34760;-61
2022/08/10 07:25:10;;;;;;;4.28;1.75;;;;;;;24.78;34.01;100187.19;4444060;32;33602;-61
2022/08/10 07:27:39;;;;;;;4.57;1.60;;;;;;;24.73;34.09;100184.22;4452164;32;34130;-61
2022/08/10 07:30:29;;;;;;;3.40;1.48;;;;;;;24.79;34.44;100181.53;4444933;32;32196;-62
2022/08/10 07:32:59;;;;;;;5.22;2.12;;;;;;;25.38;33.74;100171.28;4450795;32;33671;-61
2022/08/10 07:35:28;;;;;;;3.50;1.67;;;;;;;25.49;33.34;100176.16;4456846;32;33307;-61
2022/08/10 07:38:05;;;;;;;3.78;1.73;;;;;;;25.59;32.81;100181.31;4457517;32;35958;-61
2022/08/10 07:40:33;;;;;;;3.95;1.95;;;;;;;25.51;32.48;100169.44;4441730;32;34668;-61
2022/08/10 07:43:02;;;;;;;4.50;1.70;;;;;;;25.51;32.53;100177.66;4449465;32;32488;-62
2022/08/10 07:45:32;;;;;;;3.78;1.60;;;;;;;25.60;32.50;100175.63;4454837;32;34641;-61
2022/08/10 07:48:02;;;;;;;6.55;1.55;;;;;;;25.60;32.36;100175.63;4460368;32;33762;-62
2022/08/10 07:50:36;;;;;;;4.57;1.95;;;;;;;25.50;32.32;100177.88;4439764;32;33533;-61
2022/08/10 07:53:07;;;;;;;3.45;1.55;;;;;;;25.90;31.94;100178.97;4462104;32;34029;-61
2022/08/10 07:55:39;;;;;;;3.70;1.50;;;;;;;25.06;33.60;100184.50;4460689;32;32866;-61
2022/08/10 07:58:35;;;;;;;3.70;1.55;;;;;;;25.41;33.08;100179.94;4450926;32;35290;-61
2022/08/10 08:01:03;;;;;;;3.40;1.55;;;;;;;25.70;31.94;100180.72;4440519;32;33384;-61
2022/08/10 08:03:32;;;;;;;4.35;1.62;;;;;;;25.98;31.24;100187.03;4442176;32;34071;-61
2022/08/10 08:06:00;;;;;;;3.25;1.35;;;;;;;25.68;31.70;100185.56;4451856;32;33843;-62
2022/08/10 08:08:33;;;;;;;2.80;1.30;;;;;;;25.84;31.70;100184.41;4446144;32;35197;-61
2022/08/10 08:11:01;;;;;;;5.57;1.50;;;;;;;26.27;30.70;100179.53;4438629;32;34661;-61
2022/08/10 08:13:29;;;;;;;11.20;1.80;;;;;;;26.24;31.33;100180.78;4459647;32;35067;-63
2022/08/10 08:15:59;;;;;;;3.62;1.62;;;;;;;25.94;32.46;100176.66;4458427;32;35068;-61
2022/08/10 08:18:51;;;;;;;3.95;1.70;;;;;;;26.39;30.86;100169.66;4447565;32;34383;-61
2022/08/10 08:21:39;;;;;;;4.50;1.50;;;;;;;26.69;31.02;100172.06;4453453;32;34716;-61
2022/08/10 08:24:27;;;;;;;4.40;1.62;;;;;;;26.89;30.21;100174.81;4453578;32;33900;-61
2022/08/10 08:27:04;;;;;;;3.22;1.60;;;;;;;27.34;29.64;100164.88;4451116;32;32798;-62
2022/08/10 08:29:36;;;;;;;3.90;1.60;;;;;;;27.39;29.78;100175.22;4446272;32;35281;-61
2022/08/10 08:32:05;;;;;;;3.95;1.75;;;;;;;26.92;29.72;100169.72;4456335;32;34427;-61
2022/08/10 08:34:36;;;;;;;3.85;1.45;;;;;;;26.84;29.10;100161.72;4442849;32;32205;-61
2022/08/10 08:37:06;;;;;;;2.85;1.30;;;;;;;26.96;30.04;100159.16;4454379;32;32768;-61
2022/08/10 08:39:35;;;;;;;4.87;1.62;;;;;;;27.25;29.89;100160.66;4461478;32;34470;-62
2022/08/10 08:42:37;;;;;;;3.67;1.40;;;;;;;27.44;28.19;100156.19;4454175;32;33449;-62
2022/08/10 08:45:29;;;;;;;2.97;1.20;;;;;;;27.26;27.86;100156.88;4463070;32;33775;-62
2022/08/10 08:48:08;;;;;;;3.05;1.23;;;;;;;27.31;28.69;100157.03;4451344;32;34062;-62
2022/08/10 08:50:41;;;;;;;11.45;2.35;;;;;;;27.14;28.82;100159.41;4462017;32;34976;-63
2022/08/10 08:53:49;;;;;;;7.93;1.60;;;;;;;27.08;29.42;100168.47;4464025;32;34208;-61
2022/08/10 08:56:41;;;;;;;6.45;1.65;;;;;;;27.35;28.94;100162.94;4445685;32;32561;-61
2022/08/10 08:59:54;;;;;;;4.62;1.48;;;;;;;27.27;29.21;100160.44;4447215;32;33015;-61
2022/08/10 09:02:58;;;;;;;12.52;2.55;;;;;;;27.78;27.86;100155.06;4460129;32;35334;-61
2022/08/10 09:05:49;;;;;;;4.90;1.40;;;;;;;27.61;28.40;100160.16;4461367;32;31979;-61
2022/08/10 09:08:50;;;;;;;3.90;1.40;;;;;;;27.59;28.27;100156.78;4462888;32;33818;-62
2022/08/10 09:11:18;;;;;;;2.80;1.30;;;;;;;27.54;29.13;100158.47;4459830;32;34044;-61
2022/08/10 09:14:25;;;;;;;10.02;2.70;;;;;;;27.49;28.21;100156.38;4461139;32;33850;-61
2022/08/10 09:17:09;;;;;;;5.32;1.85;;;;;;;27.50;28.48;100160.81;4380171;32;32184;-62
2022/08/10 09:19:48;;;;;;;6.50;1.60;;;;;;;28.11;27.97;100159.56;4398430;32;34830;-61
2022/08/10 09:22:34;;;;;;;6.55;1.75;;;;;;;28.43;26.88;100157.72;4418943;32;32780;-62
2022/08/10 09:25:14;;;;;;;4.53;1.50;;;;;;;28.32;27.14;100152.91;4442484;32;32796;-62
2022/08/10 09:27:44;;;;;;;6.57;1.73;;;;;;;27.75;28.71;100158.22;4451863;32;34803;-62
2022/08/10 09:30:29;;;;;;;15.27;3.10;;;;;;;28.17;27.54;100149.59;4457678;32;35130;-63
2022/08/10 09:33:14;;;;;;;4.00;1.40;;;;;;;28.42;26.48;100144.19;4444157;32;35218;-61
2022/08/10 09:36:15;;;;;;;3.58;1.30;;;;;;;28.96;25.67;100143.56;4449964;32;35238;-61
2022/08/10 09:39:22;;;;;;;4.97;1.90;;;;;;;28.94;26.46;100150.34;4455153;32;33698;-63
2022/08/10 09:42:47;;;;;;;5.55;1.52;;;;;;;28.83;26.83;100135.41;4452367;32;34081;-61
2022/08/10 09:45:47;;;;;;;8.55;2.45;;;;;;;29.41;25.38;100151.63;4452582;32;32588;-62
2022/08/10 09:48:31;;;;;;;3.25;1.30;;;;;;;29.27;25.46;100143.72;4445749;32;34308;-63
2022/08/10 09:51:09;;;;;;;3.37;1.12;;;;;;;29.48;25.35;100135.84;4452907;32;34485;-62
2022/08/10 09:54:16;;;;;;;7.37;1.70;;;;;;;29.10;24.91;100141.56;4449654;32;33915;-62
2022/08/10 09:56:48;;;;;;;6.18;1.83;;;;;;;29.63;24.55;100148.44;4448993;32;32762;-62
2022/08/10 09:59:26;;;;;;;3.75;1.48;;;;;;;29.66;24.60;100129.53;4447315;32;34145;-62
2022/08/10 10:02:26;;;;;;;2.25;1.20;;;;;;;30.07;24.22;100129.84;4445272;32;33286;-61
2022/08/10 10:05:16;;;;;;;10.13;2.00;;;;;;;29.90;23.38;100129.66;4454720;32;34045;-61
2022/08/10 10:07:51;;;;;;;2.92;1.20;;;;;;;29.75;24.63;100129.22;4458978;32;33345;-61
2022/08/10 10:10:23;;;;;;;4.55;1.55;;;;;;;30.27;23.79;100124.09;4444254;32;35225;-62
2022/08/10 10:13:02;;;;;;;6.57;1.60;;;;;;;30.46;22.94;100124.87;4452176;32;33857;-62
2022/08/10 10:15:48;;;;;;;6.05;1.60;;;;;;;30.13;23.06;100123.41;4442356;32;31572;-62
2022/08/10 10:18:38;;;;;;;7.00;1.35;;;;;;;30.36;23.14;100125.44;4442432;32;35175;-62
2022/08/10 10:21:12;;;;;;;5.25;1.60;;;;;;;30.25;23.33;100116.03;4440543;32;33995;-62
2022/08/10 10:24:18;;;;;;;1.65;1.15;;;;;;;30.57;22.72;100108.34;4449566;32;34392;-63
2022/08/10 10:26:56;;;;;;;4.10;1.45;;;;;;;30.46;22.59;100102.78;4462545;32;34697;-62
2022/08/10 10:29:32;;;;;;;2.47;1.10;;;;;;;29.87;23.55;100114.41;4440596;32;33997;-62
2022/08/10 10:32:39;;;;;;;3.03;1.08;;;;;;;29.87;22.81;100103.38;4459763;32;34463;-62
2022/08/10 10:35:28;;;;;;;3.30;1.37;;;;;;;30.54;22.31;100099.69;4451041;32;33583;-63
2022/08/10 10:37:56;;;;;;;1.87;1.10;;;;;;;30.78;21.83;100097.81;4455823;32;33867;-62
2022/08/10 10:40:37;;;;;;;6.03;1.12;;;;;;;30.52;22.74;100086.09;4452490;32;33367;-62
2022/08/10 10:43:15;;;;;;;3.30;1.33;;;;;;;30.99;22.67;100094.47;4443451;32;33859;-62
2022/08/10 10:46:21;;;;;;;2.53;1.25;;;;;;;30.38;22.54;100096.50;4435992;32;33598;-62
2022/08/10 10:49:20;;;;;;;5.45;1.60;;;;;;;30.64;22.83;100086.12;4408447;32;33876;-62
2022/08/10 10:52:04;;;;;;;2.90;1.10;;;;;;;31.36;21.66;100085.09;4410367;32;33950;-62
2022/08/10 10:54:54;;;;;;;2.90;1.10;;;;;;;31.81;21.07;100071.37;4444359;32;35061;-62
2022/08/10 10:57:55;;;;;;;4.50;1.20;;;;;;;30.97;21.95;100079.19;4454737;32;33496;-62
2022/08/10 11:00:53;;;;;;;3.05;1.00;;;;;;;31.09;21.64;100077.28;4444745;32;33802;-61
2022/08/10 11:03:45;;;;;;;3.30;1.10;;;;;;;30.78;22.20;100079.31;4460408;32;35290;-63
2022/08/10 11:06:44;;;;;;;4.32;1.30;;;;;;;31.37;21.00;100087.63;4448870;32;34395;-63
2022/08/10 11:09:20;;;;;;;2.78;1.10;;;;;;;30.44;21.75;100080.09;4427941;32;33365;-63
2022/08/10 11:12:22;;;;;;;2.50;1.10;;;;;;;30.92;20.65;100077.16;4446365;32;33477;-62
2022/08/10 11:15:24;;;;;;;1.85;1.10;;;;;;;30.73;21.32;100062.59;4433607;32;33882;-62
2022/08/10 11:17:57;;;;;;;2.62;1.30;;;;;;;30.99;21.61;100069.59;4448425;32;32703;-62
2022/08/10 11:20:47;;;;;;;2.78;1.23;;;;;;;30.49;22.05;100063.63;4440026;32;33276;-61
2022/08/10 11:23:23;;;;;;;2.90;1.08;;;;;;;30.28;21.76;100065.03;4427925;32;33797;-61
2022/08/10 11:25:56;;;;;;;2.37;1.15;;;;;;;30.19;22.61;100072.81;4445392;32;33794;-61
2022/08/10 11:29:09;;;;;;;2.80;1.30;;;;;;;30.60;22.16;100060.91;4453438;32;32894;-61
2022/08/10 11:31:42;;;;;;;2.83;1.30;;;;;;;30.38;22.55;100057.03;4427109;32;32816;-60
2022/08/10 11:34:18;;;;;;;2.50;1.25;;;;;;;30.26;22.69;100056.97;4451032;32;35337;-62
2022/08/10 11:37:28;;;;;;;2.33;1.12;;;;;;;30.04;22.97;100061.31;4451720;32;34025;-64
2022/08/10 11:40:27;;;;;;;3.95;1.12;;;;;;;30.60;22.44;100052.59;4447217;32;33141;-63
2022/08/10 11:43:13;;;;;;;2.78;1.05;;;;;;;30.50;22.67;100054.25;4448564;32;34402;-63
2022/08/10 11:45:43;;;;;;;2.78;0.90;;;;;;;30.80;22.64;100060.56;4457839;32;35132;-65
2022/08/10 11:48:37;;;;;;;2.92;1.10;;;;;;;30.81;19.89;100047.59;4452356;32;35096;-63
2022/08/10 11:51:32;;;;;;;3.03;1.30;;;;;;;30.66;20.36;100061.88;4455938;32;34054;-64
2022/08/10 11:54:09;;;;;;;2.60;0.98;;;;;;;30.83;20.63;100057.34;4445037;32;33459;-63
2022/08/10 11:56:48;;;;;;;2.97;1.23;;;;;;;30.84;20.63;100056.25;4442986;32;34746;-64
2022/08/10 12:02:05;;;;;;;1.87;0.80;;;;;;;30.16;21.08;100051.16;4457680;32;33930;-64
2022/08/10 12:04:34;;;;;;;4.35;1.58;;;;;;;30.66;20.40;100050.81;4448897;32;34875;-63
2022/08/10 12:07:04;;;;;;;4.10;1.20;;;;;;;30.95;19.76;100053.72;4440989;32;33400;-62
2022/08/10 12:09:53;;;;;;;2.87;1.00;;;;;;;30.39;20.01;100056.78;4446720;32;33851;-63
2022/08/10 12:12:50;;;;;;;2.55;1.10;;;;;;;30.53;19.86;100054.66;4450243;32;34199;-63
2022/08/10 12:15:59;;;;;;;1.73;1.05;;;;;;;30.57;19.71;100038.44;4449243;32;32582;-62
2022/08/10 12:18:46;;;;;;;2.33;1.10;;;;;;;30.67;19.78;100043.38;4442736;32;32593;-61
2022/08/10 12:21:21;;;;;;;2.58;0.82;;;;;;;30.76;19.89;100040.00;4441628;32;33978;-60
2022/08/10 12:23:55;;;;;;;5.62;1.40;;;;;;;31.10;20.05;100029.19;4456755;32;33874;-61